createdAt,value
2019-04-21T00:00:11.825Z,41.52
2019-04-21T00:01:10.597Z,41.62
2019-04-21T00:02:08.925Z,41.52
2019-04-21T00:03:18.190Z,41.52
2019-04-21T00:04:20.721Z,41.52
2019-04-21T00:05:30.696Z,41.33
2019-04-21T00:06:31.484Z,41.91
2019-04-21T00:07:27.225Z,41.50
2019-04-21T00:08:41.863Z,41.50
2019-04-21T00:09:32.650Z,41.69
2019-04-21T00:10:36.125Z,41.41
2019-04-21T00:11:29.973Z,41.50
2019-04-21T00:12:21.934Z,41.60
2019-04-21T00:13:23.663Z,41.52
2019-04-21T00:14:22.577Z,41.81
2019-04-21T00:15:18.146Z,41.91
2019-04-21T00:16:12.202Z,41.24
2019-04-21T00:17:14.093Z,41.31
2019-04-21T00:18:11.937Z,41.91
2019-04-21T00:19:14.494Z,41.79
2019-04-21T00:20:19.448Z,41.31
2019-04-21T00:21:21.166Z,41.50
2019-04-21T00:23:22.152Z,41.22
2019-04-21T00:24:23.868Z,41.60
2019-04-21T00:25:24.890Z,41.41
2019-04-21T00:26:31.799Z,41.31
2019-04-21T00:27:24.491Z,41.41
2019-04-21T00:28:32.521Z,41.41
2019-04-21T00:29:30.344Z,41.50
2019-04-21T00:30:27.000Z,41.79
2019-04-21T00:31:24.887Z,41.41
2019-04-21T00:32:21.803Z,41.69
2019-04-21T00:33:17.183Z,41.41
2019-04-21T00:34:09.130Z,41.79
2019-04-21T00:35:14.104Z,41.60
2019-04-21T00:36:15.990Z,41.31
2019-04-21T00:37:18.929Z,41.79
2019-04-21T00:38:32.453Z,41.69
2019-04-21T00:39:36.343Z,41.69
2019-04-21T00:40:31.263Z,41.60
2019-04-21T00:41:29.433Z,41.50
2019-04-21T00:42:29.172Z,41.60
2019-04-21T00:43:26.563Z,41.50
2019-04-21T00:44:21.507Z,41.69
2019-04-21T00:45:23.616Z,41.50
2019-04-21T00:46:27.974Z,41.50
2019-04-21T00:47:30.338Z,41.50
2019-04-21T00:48:29.970Z,41.69
2019-04-21T00:49:23.257Z,41.60
2019-04-21T00:50:38.008Z,41.69
2019-04-21T00:51:40.680Z,41.60
2019-04-21T00:52:49.213Z,41.79
2019-04-21T00:53:38.377Z,41.69
2019-04-21T00:54:33.341Z,41.50
2019-04-21T00:55:34.022Z,41.79
2019-04-21T00:56:33.752Z,41.41
2019-04-21T00:57:34.257Z,41.79
2019-04-21T00:58:37.246Z,41.98
2019-04-21T00:59:32.500Z,41.31
2019-04-21T01:00:27.422Z,41.98
2019-04-21T01:01:34.223Z,42.08
2019-04-21T01:02:36.447Z,41.98
2019-04-21T01:03:32.310Z,41.69
2019-04-21T01:04:30.681Z,41.31
2019-04-21T01:05:37.457Z,41.79
2019-04-21T01:06:29.129Z,41.79
2019-04-21T01:07:32.007Z,41.69
2019-04-21T01:08:31.277Z,41.60
2019-04-21T01:09:30.175Z,41.69
2019-04-21T01:10:22.161Z,41.69
2019-04-21T01:11:38.888Z,41.88
2019-04-21T01:12:33.133Z,41.41
2019-04-21T01:13:38.415Z,41.69
2019-04-21T01:14:34.783Z,41.79
2019-04-21T01:15:41.394Z,41.79
2019-04-21T01:16:35.960Z,41.50
2019-04-21T01:17:27.693Z,41.79
2019-04-21T01:18:32.643Z,41.31
2019-04-21T01:19:32.133Z,41.88
2019-04-21T01:20:16.806Z,41.98
2019-04-21T01:21:14.283Z,42.08
2019-04-21T01:22:09.208Z,41.69
2019-04-21T01:23:10.451Z,41.88
2019-04-21T01:24:18.281Z,41.98
2019-04-21T01:25:20.258Z,41.31
2019-04-21T01:26:24.896Z,41.69
2019-04-21T01:27:21.131Z,41.79
2019-04-21T01:28:24.634Z,41.88
2019-04-21T01:29:27.715Z,42.17
2019-04-21T01:30:28.592Z,42.17
2019-04-21T01:31:22.998Z,42.17
2019-04-21T01:32:29.545Z,41.98
2019-04-21T01:33:36.243Z,42.08
2019-04-21T01:34:33.200Z,42.27
2019-04-21T01:35:25.626Z,42.08
2019-04-21T01:36:26.086Z,42.36
2019-04-21T01:37:35.709Z,42.65
2019-04-21T01:38:34.312Z,42.93
2019-04-21T01:39:35.338Z,43.22
2019-04-21T01:41:31.378Z,43.03
2019-04-21T01:42:25.638Z,42.82
2019-04-21T01:43:27.949Z,42.55
2019-04-21T01:44:38.785Z,42.84
2019-04-21T01:45:26.574Z,42.84
2019-04-21T01:46:28.387Z,42.55
2019-04-21T01:47:29.343Z,42.46
2019-04-21T01:48:24.680Z,42.93
2019-04-21T01:49:19.147Z,42.74
2019-04-21T01:50:31.312Z,42.55
2019-04-21T01:51:22.266Z,42.55
2019-04-21T01:52:40.909Z,42.65
2019-04-21T01:53:33.269Z,42.55
2019-04-21T01:54:28.599Z,42.84
2019-04-21T01:55:28.873Z,42.93
2019-04-21T01:56:30.602Z,42.84
2019-04-21T01:57:22.629Z,42.55
2019-04-21T01:58:24.092Z,43.13
2019-04-21T01:59:18.858Z,43.32
2019-04-21T02:00:28.146Z,43.49
2019-04-21T02:01:28.475Z,43.13
2019-04-21T02:02:32.230Z,43.10
2019-04-21T02:03:48.606Z,43.10
2019-04-21T02:04:36.289Z,43.49
2019-04-21T02:05:37.538Z,43.49
2019-04-21T02:06:33.159Z,43.58
2019-04-21T02:07:26.887Z,43.51
2019-04-21T02:08:27.471Z,43.10
2019-04-21T02:09:26.926Z,43.58
2019-04-21T02:10:34.662Z,43.77
2019-04-21T02:11:31.270Z,43.49
2019-04-21T02:12:34.586Z,43.77
2019-04-21T02:13:27.762Z,43.68
2019-04-21T02:14:44.202Z,43.68
2019-04-21T02:15:39.104Z,43.87
2019-04-21T02:16:32.725Z,43.87
2019-04-21T02:17:29.743Z,43.96
2019-04-21T02:18:29.223Z,43.77
2019-04-21T02:19:27.231Z,43.87
2019-04-21T02:20:23.020Z,44.34
2019-04-21T02:21:21.863Z,44.73
2019-04-21T02:22:35.390Z,44.73
2019-04-21T02:24:35.176Z,44.73
2019-04-21T02:25:32.150Z,44.44
2019-04-21T02:26:37.637Z,44.63
2019-04-21T02:27:34.294Z,44.53
2019-04-21T02:28:40.399Z,44.73
2019-04-21T02:29:37.641Z,44.63
2019-04-21T02:30:47.143Z,45.01
2019-04-21T02:32:48.367Z,44.53
2019-04-21T02:33:45.865Z,44.73
2019-04-21T02:36:03.066Z,44.44
2019-04-21T02:36:53.467Z,44.73
2019-04-21T02:37:51.199Z,44.63
2019-04-21T02:38:53.049Z,44.25
2019-04-21T02:39:51.352Z,44.34
2019-04-21T02:41:47.393Z,44.92
2019-04-21T02:42:47.956Z,44.73
2019-04-21T02:43:46.115Z,44.44
2019-04-21T02:44:46.735Z,44.44
2019-04-21T02:45:37.904Z,44.53
2019-04-21T02:46:42.334Z,44.53
2019-04-21T02:47:48.592Z,44.63
2019-04-21T02:48:45.130Z,45.10
2019-04-21T02:49:56.223Z,45.01
2019-04-21T02:50:37.648Z,44.82
2019-04-21T02:52:54.065Z,44.82
2019-04-21T02:55:42.025Z,44.82
2019-04-21T02:56:43.913Z,44.92
2019-04-21T02:57:45.564Z,45.20
2019-04-21T02:58:41.980Z,44.92
2019-04-21T02:59:42.600Z,45.20
2019-04-21T03:00:46.578Z,45.20
2019-04-21T03:01:56.846Z,45.10
2019-04-21T03:03:54.450Z,45.10
2019-04-21T03:04:46.752Z,44.92
2019-04-21T03:06:39.356Z,45.10
2019-04-21T03:07:43.694Z,45.39
2019-04-21T03:10:48.695Z,45.49
2019-04-21T03:11:36.440Z,45.49
2019-04-21T03:12:37.663Z,45.39
2019-04-21T03:13:54.730Z,45.49
2019-04-21T03:14:48.409Z,45.29
2019-04-21T03:15:49.056Z,45.58
2019-04-21T03:16:31.239Z,45.39
2019-04-21T03:17:43.816Z,45.68
2019-04-21T03:21:00.080Z,45.68
2019-04-21T03:21:38.814Z,45.97
2019-04-21T03:22:59.938Z,45.97
2019-04-21T03:23:52.305Z,45.87
2019-04-21T03:24:53.943Z,45.87
2019-04-21T03:26:55.898Z,45.78
2019-04-21T03:27:50.293Z,45.78
2019-04-21T03:28:35.660Z,46.15
2019-04-21T03:29:50.221Z,46.15
2019-04-21T03:32:04.353Z,45.87
2019-04-21T03:34:31.755Z,45.97
2019-04-21T03:37:44.675Z,46.15
2019-04-21T03:38:40.567Z,46.15
2019-04-21T03:39:44.920Z,45.87
2019-04-21T03:40:57.707Z,46.15
2019-04-21T03:41:52.580Z,46.06
2019-04-21T03:42:43.119Z,46.44
2019-04-21T03:43:44.594Z,46.15
2019-04-21T03:44:37.060Z,46.15
2019-04-21T03:45:44.363Z,46.15
2019-04-21T03:46:41.272Z,46.34
2019-04-21T03:47:39.649Z,46.15
2019-04-21T03:48:41.082Z,46.34
2019-04-21T03:49:48.091Z,46.15
2019-04-21T03:51:48.707Z,46.25
2019-04-21T03:52:45.718Z,46.44
2019-04-21T03:53:37.833Z,46.44
2019-04-21T03:54:41.960Z,46.34
2019-04-21T03:56:59.232Z,46.54
2019-04-21T03:57:57.116Z,46.73
2019-04-21T03:59:45.881Z,46.82
2019-04-21T04:00:54.145Z,47.02
2019-04-21T04:01:44.495Z,46.82
2019-04-21T04:02:45.183Z,46.54
2019-04-21T04:03:53.371Z,46.54
2019-04-21T04:06:05.379Z,47.08
2019-04-21T04:06:43.219Z,47.11
2019-04-21T04:07:49.676Z,47.20
2019-04-21T04:08:55.266Z,47.18
2019-04-21T04:09:49.028Z,47.08
2019-04-21T04:10:42.659Z,47.28
2019-04-21T04:11:47.401Z,47.18
2019-04-21T04:12:48.789Z,47.08
2019-04-21T04:15:56.167Z,47.08
2019-04-21T04:16:51.531Z,47.28
2019-04-21T04:19:41.813Z,47.11
2019-04-21T04:20:45.471Z,47.02
2019-04-21T04:21:47.817Z,47.08
2019-04-21T04:23:45.713Z,47.20
2019-04-21T04:24:50.181Z,47.20
2019-04-21T04:25:42.965Z,47.37
2019-04-21T04:26:39.502Z,48.04
2019-04-21T04:28:46.511Z,47.56
2019-04-21T04:29:40.005Z,47.47
2019-04-21T04:30:57.501Z,47.49
2019-04-21T04:32:41.769Z,47.39
2019-04-21T04:33:48.877Z,47.39
2019-04-21T04:35:52.890Z,47.02
2019-04-21T04:37:44.489Z,46.34
2019-04-21T04:39:02.191Z,46.73
2019-04-21T04:40:43.335Z,46.15
2019-04-21T04:42:00.296Z,45.70
2019-04-21T04:42:47.783Z,45.79
2019-04-21T04:43:35.241Z,45.22
2019-04-21T04:46:44.167Z,44.58
2019-04-21T04:47:47.664Z,43.74
2019-04-21T04:48:41.965Z,43.17
2019-04-21T04:52:14.194Z,42.97
2019-04-21T04:52:38.442Z,42.97
2019-04-21T04:56:00.934Z,42.71
2019-04-21T04:56:40.447Z,42.24
2019-04-21T04:59:09.896Z,41.47
2019-04-21T04:59:42.550Z,41.47
2019-04-21T05:01:59.663Z,40.72
2019-04-21T05:05:36.216Z,40.63
2019-04-21T05:06:53.905Z,40.55
2019-04-21T05:07:50.085Z,40.26
2019-04-21T05:08:58.912Z,40.26
2019-04-21T05:09:41.333Z,40.26
2019-04-21T05:10:51.527Z,40.17
2019-04-21T05:12:35.767Z,39.60
2019-04-21T05:13:43.440Z,39.23
2019-04-21T05:14:41.019Z,39.33
2019-04-21T05:15:38.359Z,39.52
2019-04-21T05:17:50.878Z,38.37
2019-04-21T05:18:46.570Z,38.76
2019-04-21T05:19:51.642Z,38.28
2019-04-21T05:20:37.034Z,37.82
2019-04-21T05:22:11.033Z,38.20
2019-04-21T05:22:35.299Z,38.01
2019-04-21T05:23:31.565Z,37.53
2019-04-21T05:24:28.344Z,37.63
2019-04-21T05:25:30.657Z,37.82
2019-04-21T05:26:22.078Z,37.24
2019-04-21T05:27:25.642Z,37.16
2019-04-21T05:28:23.441Z,36.79
2019-04-21T05:29:23.635Z,36.40
2019-04-21T05:30:37.015Z,36.22
2019-04-21T05:31:36.761Z,35.44
2019-04-21T05:32:31.964Z,35.84
2019-04-21T05:33:34.574Z,35.36
2019-04-21T05:34:31.533Z,35.36
2019-04-21T05:35:32.192Z,35.08
2019-04-21T05:36:29.028Z,34.79
2019-04-21T05:37:30.542Z,34.50
2019-04-21T05:38:27.415Z,34.79
2019-04-21T05:39:29.641Z,34.41
2019-04-21T05:40:29.307Z,34.61
2019-04-21T05:41:20.620Z,34.34
2019-04-21T05:42:30.503Z,34.15
2019-04-21T05:43:32.530Z,34.15
2019-04-21T05:44:41.942Z,33.48
2019-04-21T05:46:32.275Z,32.81
2019-04-21T05:47:41.406Z,33.01
2019-04-21T05:48:37.190Z,33.01
2019-04-21T05:49:34.058Z,33.23
2019-04-21T05:50:26.602Z,32.36
2019-04-21T05:51:30.757Z,32.09
2019-04-21T05:52:29.087Z,31.80
2019-04-21T05:53:36.355Z,31.61
2019-04-21T05:54:38.872Z,31.53
2019-04-21T05:55:39.907Z,30.57
2019-04-21T05:56:39.533Z,30.57
2019-04-21T05:57:31.762Z,30.38
2019-04-21T05:58:31.711Z,30.49
2019-04-21T05:59:32.650Z,30.10
2019-04-21T06:01:50.214Z,29.52
2019-04-21T06:02:53.541Z,29.54
2019-04-21T06:03:42.720Z,29.63
2019-04-21T06:04:48.200Z,29.15
2019-04-21T06:06:33.600Z,27.72
2019-04-21T06:07:34.827Z,28.69
2019-04-21T06:08:32.833Z,28.40
2019-04-21T06:09:34.911Z,28.59
2019-04-21T06:10:34.696Z,28.61
2019-04-21T06:11:30.885Z,28.61
2019-04-21T06:12:35.832Z,28.22
2019-04-21T06:13:42.873Z,27.94
2019-04-21T06:14:42.216Z,27.56
2019-04-21T06:15:37.413Z,27.94
2019-04-21T06:16:37.054Z,27.45
2019-04-21T06:17:34.884Z,27.85
2019-04-21T06:18:42.116Z,28.33
2019-04-21T06:19:41.288Z,28.04
2019-04-21T06:20:35.462Z,27.46
2019-04-21T06:21:35.928Z,26.98
2019-04-21T06:22:33.176Z,27.06
2019-04-21T06:23:36.304Z,27.55
2019-04-21T06:24:29.967Z,27.55
2019-04-21T06:27:32.726Z,27.82
2019-04-21T06:28:40.060Z,27.72
2019-04-21T06:29:38.457Z,28.48
2019-04-21T06:30:43.933Z,27.91
2019-04-21T06:33:36.277Z,29.62
2019-04-21T06:34:49.574Z,29.03
2019-04-21T06:35:48.403Z,29.41
2019-04-21T06:38:43.380Z,30.65
2019-04-21T06:39:39.785Z,30.65
2019-04-21T06:40:35.584Z,30.84
2019-04-21T06:41:34.289Z,31.13
2019-04-21T06:42:33.704Z,31.41
2019-04-21T06:43:42.043Z,31.51
2019-04-21T06:44:32.314Z,31.69
2019-04-21T06:45:45.961Z,31.59
2019-04-21T06:47:47.315Z,32.15
2019-04-21T06:48:32.988Z,32.90
2019-04-21T06:49:31.424Z,33.48
2019-04-21T06:50:44.156Z,33.67
2019-04-21T06:51:33.753Z,33.86
2019-04-21T06:52:47.660Z,34.15
2019-04-21T06:53:37.976Z,34.44
2019-04-21T06:54:35.246Z,34.44
2019-04-21T06:55:35.234Z,34.63
2019-04-21T06:56:51.628Z,34.52
2019-04-21T06:57:33.307Z,35.21
2019-04-21T06:59:31.884Z,35.10
2019-04-21T07:00:31.837Z,35.77
2019-04-21T07:01:39.009Z,35.77
2019-04-21T07:02:50.751Z,35.86
2019-04-21T07:03:34.875Z,36.05
2019-04-21T07:04:50.458Z,35.55
2019-04-21T07:05:34.620Z,35.84
2019-04-21T07:06:35.695Z,36.71
2019-04-21T07:07:36.558Z,36.71
2019-04-21T07:08:34.543Z,36.49
2019-04-21T07:09:31.303Z,36.79
2019-04-21T07:10:31.914Z,37.84
2019-04-21T07:11:32.769Z,37.55
2019-04-21T07:13:34.533Z,37.93
2019-04-21T07:14:40.242Z,37.93
2019-04-21T07:15:38.764Z,37.93
2019-04-21T07:16:42.369Z,38.51
2019-04-21T07:17:33.612Z,38.41
2019-04-21T07:18:36.968Z,38.41
2019-04-21T07:19:42.718Z,38.03
2019-04-21T07:20:36.720Z,38.60
2019-04-21T07:21:33.872Z,38.60
2019-04-21T07:22:37.086Z,38.70
2019-04-21T07:23:44.110Z,38.78
2019-04-21T07:24:37.344Z,38.78
2019-04-21T07:25:49.758Z,38.87
2019-04-21T07:26:36.809Z,39.35
2019-04-21T07:27:35.443Z,39.37
2019-04-21T07:28:40.475Z,39.35
2019-04-21T07:29:45.310Z,39.16
2019-04-21T07:30:37.739Z,39.45
2019-04-21T07:31:45.029Z,39.92
2019-04-21T07:32:33.439Z,39.83
2019-04-21T07:34:38.337Z,39.92
2019-04-21T07:35:34.522Z,39.92
2019-04-21T07:36:52.542Z,40.21
2019-04-21T07:37:35.337Z,39.92
2019-04-21T07:38:33.211Z,40.29
2019-04-21T07:39:32.629Z,40.31
2019-04-21T07:40:27.493Z,40.31
2019-04-21T07:41:24.902Z,40.21
2019-04-21T07:42:29.762Z,40.69
2019-04-21T07:43:25.866Z,40.41
2019-04-21T07:44:31.843Z,40.31
2019-04-21T07:45:27.801Z,40.69
2019-04-21T07:46:26.341Z,40.19
2019-04-21T07:47:37.264Z,40.21
2019-04-21T07:48:35.715Z,40.02
2019-04-21T07:49:32.926Z,40.50
2019-04-21T07:50:34.723Z,40.59
2019-04-21T07:51:42.266Z,40.41
2019-04-21T07:52:37.774Z,40.12
2019-04-21T07:53:34.590Z,40.21
2019-04-21T07:54:37.349Z,40.41
2019-04-21T07:56:22.691Z,40.41
2019-04-21T07:57:33.088Z,40.59
2019-04-21T07:58:38.692Z,40.78
2019-04-21T07:59:58.807Z,40.59
2019-04-21T08:00:38.967Z,40.31
2019-04-21T08:01:30.492Z,40.12
2019-04-21T08:03:33.628Z,39.54
2019-04-21T08:05:31.389Z,39.92
2019-04-21T08:06:36.589Z,39.94
2019-04-21T08:07:41.785Z,39.92
2019-04-21T08:08:29.749Z,39.73
2019-04-21T08:09:37.206Z,39.92
2019-04-21T08:10:26.286Z,39.92
2019-04-21T08:11:28.441Z,40.02
2019-04-21T08:12:27.567Z,39.92
2019-04-21T08:13:48.655Z,39.83
2019-04-21T08:14:36.915Z,39.83
2019-04-21T08:15:34.238Z,40.23
2019-04-21T08:16:30.513Z,39.94
2019-04-21T08:17:30.486Z,40.71
2019-04-21T08:18:33.757Z,40.21
2019-04-21T08:19:32.463Z,40.41
2019-04-21T08:20:28.652Z,40.31
2019-04-21T08:21:37.292Z,40.12
2019-04-21T08:22:38.186Z,40.12
2019-04-21T08:23:32.478Z,39.94
2019-04-21T08:24:40.716Z,40.21
2019-04-21T08:25:42.031Z,40.52
2019-04-21T08:26:38.323Z,40.42
2019-04-21T08:27:35.401Z,40.14
2019-04-21T08:28:35.088Z,40.42
2019-04-21T08:29:33.459Z,40.41
2019-04-21T08:30:42.453Z,40.52
2019-04-21T08:31:39.275Z,40.14
2019-04-21T08:32:46.565Z,40.42
2019-04-21T08:33:39.601Z,40.42
2019-04-21T08:34:34.684Z,40.42
2019-04-21T08:35:59.430Z,40.23
2019-04-21T08:36:49.280Z,40.61
2019-04-21T08:37:32.870Z,40.23
2019-04-21T08:38:34.352Z,40.23
2019-04-21T08:39:43.805Z,40.33
2019-04-21T08:40:36.111Z,40.42
2019-04-21T08:41:32.457Z,40.42
2019-04-21T08:42:30.575Z,40.42
2019-04-21T08:43:40.877Z,40.33
2019-04-21T08:44:33.916Z,40.52
2019-04-21T08:45:40.501Z,40.61
2019-04-21T08:46:31.751Z,40.83
2019-04-21T08:47:33.317Z,40.92
2019-04-21T08:48:37.583Z,40.83
2019-04-21T08:49:36.368Z,40.44
2019-04-21T08:50:32.466Z,39.85
2019-04-21T08:51:33.349Z,39.56
2019-04-21T08:52:49.348Z,39.65
2019-04-21T08:53:35.715Z,39.48
2019-04-21T08:54:32.311Z,39.97
2019-04-21T08:55:31.795Z,39.94
2019-04-21T08:56:34.199Z,39.58
2019-04-21T08:57:48.870Z,39.77
2019-04-21T08:58:35.675Z,39.77
2019-04-21T08:59:36.132Z,39.97
2019-04-21T09:00:32.415Z,39.48
2019-04-21T09:02:37.244Z,38.43
2019-04-21T09:03:33.096Z,38.62
2019-04-21T09:04:28.653Z,38.53
2019-04-21T09:05:31.191Z,38.53
2019-04-21T09:06:50.084Z,37.76
2019-04-21T09:07:41.665Z,38.05
2019-04-21T09:08:31.634Z,37.28
2019-04-21T09:09:35.004Z,36.90
2019-04-21T09:10:47.330Z,37.28
2019-04-21T09:11:29.512Z,37.76
2019-04-21T09:12:30.991Z,38.14
2019-04-21T09:13:30.846Z,38.62
2019-04-21T09:14:30.478Z,37.76
2019-04-21T09:15:30.919Z,36.80
2019-04-21T09:16:32.369Z,36.80
2019-04-21T09:17:25.172Z,36.99
2019-04-21T09:18:31.452Z,37.09
2019-04-21T09:19:48.375Z,38.14
2019-04-21T09:20:33.788Z,38.07
2019-04-21T09:21:31.486Z,37.97
2019-04-21T09:22:30.459Z,36.82
2019-04-21T09:23:35.137Z,37.30
2019-04-21T09:24:26.712Z,36.63
2019-04-21T09:25:38.365Z,36.63
2019-04-21T09:26:29.564Z,36.15
2019-04-21T09:27:30.510Z,36.24
2019-04-21T09:28:25.492Z,36.63
2019-04-21T09:29:20.576Z,36.63
2019-04-21T09:30:13.124Z,36.63
2019-04-21T09:31:19.189Z,36.24
2019-04-21T09:32:18.331Z,35.77
2019-04-21T09:33:14.109Z,35.38
2019-04-21T09:34:22.009Z,36.63
2019-04-21T09:35:15.043Z,38.07
2019-04-21T09:36:17.948Z,36.53
2019-04-21T09:37:26.526Z,36.53
2019-04-21T09:38:22.696Z,36.53
2019-04-21T09:39:18.313Z,35.77
2019-04-21T09:40:14.959Z,34.61
2019-04-21T09:41:17.466Z,34.33
2019-04-21T09:42:13.592Z,34.52
2019-04-21T09:43:18.700Z,34.52
2019-04-21T09:44:18.719Z,34.23
2019-04-21T09:45:14.326Z,34.90
2019-04-21T09:46:14.187Z,35.88
2019-04-21T09:47:15.908Z,36.63
2019-04-21T09:48:18.573Z,37.32
2019-04-21T09:49:15.713Z,34.63
2019-04-21T09:50:13.509Z,34.06
2019-04-21T09:51:13.221Z,33.47
2019-04-21T09:52:20.012Z,33.65
2019-04-21T09:53:22.731Z,33.39
2019-04-21T09:54:20.671Z,33.58
2019-04-21T09:55:17.862Z,33.67
2019-04-21T09:56:16.609Z,34.15
2019-04-21T09:57:25.717Z,34.25
2019-04-21T09:58:21.825Z,34.34
2019-04-21T09:59:20.718Z,35.02
2019-04-21T10:00:20.595Z,35.40
2019-04-21T10:01:20.446Z,35.59
2019-04-21T10:02:20.095Z,35.78
2019-04-21T10:03:16.262Z,35.69
2019-04-21T10:04:14.262Z,34.34
2019-04-21T10:05:14.555Z,33.96
2019-04-21T10:06:15.472Z,34.06
2019-04-21T10:07:24.567Z,34.34
2019-04-21T10:08:14.548Z,34.63
2019-04-21T10:09:16.355Z,34.63
2019-04-21T10:10:13.430Z,34.82
2019-04-21T10:11:14.139Z,34.44
2019-04-21T10:12:14.277Z,34.53
2019-04-21T10:13:15.050Z,33.39
2019-04-21T10:14:13.881Z,34.92
2019-04-21T10:15:14.224Z,34.82
2019-04-21T10:16:13.519Z,34.82
2019-04-21T10:17:14.978Z,34.06
2019-04-21T10:18:15.049Z,33.67
2019-04-21T10:19:13.764Z,33.58
2019-04-21T10:20:13.843Z,33.77
2019-04-21T10:21:13.730Z,33.39
2019-04-21T10:22:14.773Z,33.29
2019-04-21T10:23:13.607Z,33.09
2019-04-21T10:24:13.739Z,31.75
2019-04-21T10:25:14.521Z,31.56
2019-04-21T10:26:14.616Z,31.75
2019-04-21T10:27:14.789Z,31.95
2019-04-21T10:28:14.893Z,32.33
2019-04-21T10:29:21.763Z,32.73
2019-04-21T10:30:14.196Z,32.92
2019-04-21T10:31:14.426Z,33.40
2019-04-21T10:32:13.563Z,33.59
2019-04-21T10:33:14.424Z,34.17
2019-04-21T10:34:13.587Z,34.17
2019-04-21T10:35:14.885Z,34.36
2019-04-21T10:36:13.631Z,34.55
2019-04-21T10:37:13.590Z,33.88
2019-04-21T10:38:22.725Z,34.07
2019-04-21T10:39:13.779Z,34.17
2019-04-21T10:40:13.834Z,35.32
2019-04-21T10:41:15.036Z,35.13
2019-04-21T10:42:13.672Z,34.36
2019-04-21T10:43:14.212Z,33.59
2019-04-21T10:44:13.681Z,33.31
2019-04-21T10:45:14.790Z,33.01
2019-04-21T10:46:14.865Z,32.73
2019-04-21T10:47:14.501Z,32.34
2019-04-21T10:48:14.690Z,32.64
2019-04-21T10:49:14.806Z,32.64
2019-04-21T10:50:13.753Z,32.65
2019-04-21T10:51:14.886Z,32.25
2019-04-21T10:52:15.096Z,31.87
2019-04-21T10:53:14.516Z,31.77
2019-04-21T10:54:13.767Z,32.25
2019-04-21T10:55:32.560Z,32.73
2019-04-21T10:56:21.847Z,32.82
2019-04-21T10:57:14.517Z,32.92
2019-04-21T10:58:14.148Z,32.93
2019-04-21T10:59:14.263Z,33.23
2019-04-21T11:00:15.298Z,33.61
2019-04-21T11:01:14.220Z,33.42
2019-04-21T11:02:14.749Z,33.03
2019-04-21T11:03:14.871Z,32.34
2019-04-21T11:04:20.329Z,30.52
2019-04-21T11:05:14.578Z,30.63
2019-04-21T11:06:14.766Z,30.52
2019-04-21T11:07:19.215Z,30.73
2019-04-21T11:08:22.775Z,30.71
2019-04-21T11:09:14.123Z,30.44
2019-04-21T11:10:14.074Z,30.92
2019-04-21T11:11:14.211Z,30.63
2019-04-21T11:12:13.972Z,30.15
2019-04-21T11:13:14.669Z,30.54
2019-04-21T11:14:14.000Z,30.54
2019-04-21T11:15:14.802Z,30.92
2019-04-21T11:16:15.045Z,30.25
2019-04-21T11:17:14.288Z,30.15
2019-04-21T11:18:13.976Z,30.15
2019-04-21T11:19:14.015Z,30.15
2019-04-21T11:20:15.051Z,29.77
2019-04-21T11:21:13.997Z,29.86
2019-04-21T11:22:14.719Z,30.05
2019-04-21T11:23:14.265Z,30.54
2019-04-21T11:24:14.366Z,30.54
2019-04-21T11:25:14.037Z,31.21
2019-04-21T11:26:14.114Z,31.02
2019-04-21T11:27:15.001Z,30.73
2019-04-21T11:28:14.440Z,31.11
2019-04-21T11:29:14.946Z,31.40
2019-04-21T11:30:14.076Z,31.02
2019-04-21T11:31:15.362Z,30.82
2019-04-21T11:32:14.746Z,30.82
2019-04-21T11:33:15.376Z,31.11
2019-04-21T11:34:15.368Z,31.21
2019-04-21T11:35:15.057Z,31.11
2019-04-21T11:36:15.380Z,30.73
2019-04-21T11:37:14.372Z,30.63
2019-04-21T11:38:19.031Z,31.11
2019-04-21T11:39:27.209Z,30.54
2019-04-21T11:40:17.654Z,30.73
2019-04-21T11:41:14.269Z,30.92
2019-04-21T11:42:15.479Z,31.11
2019-04-21T11:43:15.643Z,30.82
2019-04-21T11:44:14.223Z,31.30
2019-04-21T11:45:14.696Z,31.30
2019-04-21T11:46:14.260Z,30.92
2019-04-21T11:47:14.343Z,31.11
2019-04-21T11:48:14.483Z,31.11
2019-04-21T11:49:14.301Z,30.63
2019-04-21T11:50:14.980Z,30.44
2019-04-21T11:51:15.211Z,30.25
2019-04-21T11:52:14.304Z,30.44
2019-04-21T11:53:14.817Z,30.63
2019-04-21T11:54:15.090Z,30.05
2019-04-21T11:55:14.404Z,30.15
2019-04-21T11:56:14.682Z,30.54
2019-04-21T11:57:20.556Z,30.44
2019-04-21T11:58:14.391Z,30.44
2019-04-21T11:59:15.490Z,30.54
2019-04-21T12:00:15.581Z,30.35
2019-04-21T12:01:15.748Z,30.44
2019-04-21T12:02:15.216Z,31.30
2019-04-21T12:03:15.733Z,31.30
2019-04-21T12:04:15.973Z,31.69
2019-04-21T12:05:15.116Z,31.98
2019-04-21T12:06:15.465Z,31.21
2019-04-21T12:07:15.450Z,30.54
2019-04-21T12:08:22.969Z,30.25
2019-04-21T12:09:14.755Z,30.35
2019-04-21T12:10:15.493Z,30.54
2019-04-21T12:11:15.915Z,30.44
2019-04-21T12:12:14.975Z,30.63
2019-04-21T12:13:14.538Z,31.49
2019-04-21T12:14:14.550Z,31.32
2019-04-21T12:15:14.494Z,31.03
2019-04-21T12:16:14.979Z,30.36
2019-04-21T12:17:14.534Z,30.17
2019-04-21T12:18:15.534Z,30.65
2019-04-21T12:19:14.664Z,30.46
2019-04-21T12:20:14.813Z,30.55
2019-04-21T12:21:15.724Z,30.46
2019-04-21T12:22:21.652Z,30.46
2019-04-21T12:23:14.588Z,30.36
2019-04-21T12:24:15.259Z,30.17
2019-04-21T12:25:15.530Z,30.55
2019-04-21T12:26:15.844Z,30.46
2019-04-21T12:27:16.059Z,30.17
2019-04-21T12:28:15.972Z,30.17
2019-04-21T12:29:14.696Z,30.26
2019-04-21T12:30:15.697Z,30.36
2019-04-21T12:31:15.742Z,30.55
2019-04-21T12:32:15.821Z,30.55
2019-04-21T12:33:16.061Z,29.79
2019-04-21T12:34:16.063Z,29.79
2019-04-21T12:35:15.734Z,29.97
2019-04-21T12:36:15.836Z,30.07
2019-04-21T12:37:15.116Z,30.17
2019-04-21T12:38:14.768Z,29.97
2019-04-21T12:39:14.982Z,30.17
2019-04-21T12:40:14.828Z,30.26
2019-04-21T12:41:14.959Z,30.07
2019-04-21T12:42:14.769Z,30.36
2019-04-21T12:43:14.845Z,29.79
2019-04-21T12:44:14.900Z,30.07
2019-04-21T12:45:15.189Z,30.07
2019-04-21T12:46:15.950Z,30.17
2019-04-21T12:47:16.222Z,30.36
2019-04-21T12:48:15.913Z,30.55
2019-04-21T12:49:15.944Z,30.46
2019-04-21T12:50:14.919Z,30.07
2019-04-21T12:51:15.554Z,30.55
2019-04-21T12:52:15.619Z,30.17
2019-04-21T12:53:16.013Z,30.46
2019-04-21T12:54:15.468Z,30.36
2019-04-21T12:55:15.471Z,30.46
2019-04-21T12:56:15.748Z,30.93
2019-04-21T12:57:14.936Z,31.51
2019-04-21T12:58:15.262Z,30.93
2019-04-21T12:59:15.083Z,31.23
2019-04-21T13:00:15.182Z,31.32
2019-04-21T13:01:14.955Z,31.32
2019-04-21T13:02:15.980Z,31.51
2019-04-21T13:03:15.869Z,31.03
2019-04-21T13:04:15.638Z,31.32
2019-04-21T13:05:15.818Z,31.70
2019-04-21T13:06:15.904Z,31.34
2019-04-21T13:07:15.375Z,31.32
2019-04-21T13:08:15.451Z,30.93
2019-04-21T13:09:19.787Z,31.32
2019-04-21T13:10:16.116Z,31.34
2019-04-21T13:11:15.131Z,31.34
2019-04-21T13:12:15.260Z,31.24
2019-04-21T13:13:15.062Z,31.34
2019-04-21T13:14:15.819Z,31.15
2019-04-21T13:15:15.717Z,31.05
2019-04-21T13:16:15.669Z,30.85
2019-04-21T13:17:15.270Z,30.57
2019-04-21T13:18:16.123Z,30.66
2019-04-21T13:19:15.466Z,30.47
2019-04-21T13:20:15.291Z,30.66
2019-04-21T13:21:16.123Z,30.85
2019-04-21T13:22:16.137Z,30.66
2019-04-21T13:23:16.641Z,30.76
2019-04-21T13:24:15.902Z,30.95
2019-04-21T13:25:16.047Z,30.57
2019-04-21T13:26:27.156Z,30.47
2019-04-21T13:27:15.575Z,30.47
2019-04-21T13:28:16.298Z,30.66
2019-04-21T13:29:16.393Z,30.18
2019-04-21T13:30:15.225Z,30.76
2019-04-21T13:31:16.157Z,30.47
2019-04-21T13:32:16.345Z,30.76
2019-04-21T13:33:15.472Z,30.76
2019-04-21T13:34:15.906Z,30.66
2019-04-21T13:35:15.285Z,30.85
2019-04-21T13:36:15.827Z,30.76
2019-04-21T13:37:15.417Z,30.95
2019-04-21T13:38:25.925Z,31.05
2019-04-21T13:39:45.869Z,31.05
2019-04-21T13:40:38.821Z,30.66
2019-04-21T13:41:29.763Z,30.76
2019-04-21T13:42:23.970Z,30.28
2019-04-21T13:43:16.947Z,30.18
2019-04-21T13:44:16.348Z,30.38
2019-04-21T13:45:16.276Z,30.66
2019-04-21T13:46:15.514Z,30.76
2019-04-21T13:47:16.653Z,29.99
2019-04-21T13:48:16.682Z,30.18
2019-04-21T13:49:15.402Z,30.08
2019-04-21T13:50:15.445Z,30.18
2019-04-21T13:51:15.501Z,30.47
2019-04-21T13:52:15.490Z,30.08
2019-04-21T13:53:16.635Z,30.00
2019-04-21T13:54:15.746Z,29.33
2019-04-21T13:55:15.848Z,29.72
2019-04-21T13:56:16.311Z,29.91
2019-04-21T13:57:16.716Z,29.81